sensor_id;sensor_type;location;lat;lon;timestamp;P1;durP1;ratioP1;P2;durP2;ratioP2
17340;SDS011;8788;49.930;8.660;2023-04-01T00:01:45;5.70;;;0.93;;
17340;SDS011;8788;49.930;8.660;2023-04-01T00:04:12;2.13;;;0.60;;
17340;SDS011;8788;49.930;8.660;2023-04-01T00:06:40;3.03;;;0.65;;
17340;SDS011;8788;49.930;8.660;2023-04-01T00:09:07;3.08;;;1.25;;
17340;SDS011;8788;49.930;8.660;2023-04-01T00:11:34;3.38;;;0.63;;
17340;SDS011;8788;49.930;8.660;2023-04-01T00:14:02;5.38;;;1.17;;
17340;SDS011;8788;49.930;8.660;2023-04-01T00:16:29;4.03;;;0.75;;
17340;SDS011;8788;49.930;8.660;2023-04-01T00:18:57;0.63;;;0.35;;
17340;SDS011;8788;49.930;8.660;2023-04-01T00:21:25;2.40;;;1.00;;
17340;SDS011;8788;49.930;8.660;2023-04-01T00:23:52;3.22;;;0.80;;
17340;SDS011;8788;49.930;8.660;2023-04-01T00:26:19;1.35;;;0.60;;
17340;SDS011;8788;49.930;8.660;2023-04-01T00:28:47;3.47;;;1.13;;
17340;SDS011;8788;49.930;8.660;2023-04-01T00:31:14;3.30;;;0.90;;
17340;SDS011;8788;49.930;8.660;2023-04-01T00:33:41;4.05;;;0.93;;
17340;SDS011;8788;49.930;8.660;2023-04-01T00:36:10;2.85;;;1.02;;
17340;SDS011;8788;49.930;8.660;2023-04-01T00:38:39;1.80;;;0.77;;
17340;SDS011;8788;49.930;8.660;2023-04-01T00:41:08;4.90;;;1.00;;
17340;SDS011;8788;49.930;8.660;2023-04-01T00:43:39;2.22;;;0.75;;
17340;SDS011;8788;49.930;8.660;2023-04-01T00:46:06;3.95;;;0.70;;
17340;SDS011;8788;49.930;8.660;2023-04-01T00:48:34;3.65;;;0.80;;
17340;SDS011;8788;49.930;8.660;2023-04-01T00:51:04;5.53;;;0.65;;
17340;SDS011;8788;49.930;8.660;2023-04-01T00:53:36;2.65;;;1.00;;
17340;SDS011;8788;49.930;8.660;2023-04-01T00:56:07;1.30;;;0.68;;
17340;SDS011;8788;49.930;8.660;2023-04-01T00:58:41;2.15;;;0.57;;
17340;SDS011;8788;49.930;8.660;2023-04-01T01:01:12;2.58;;;0.68;;
17340;SDS011;8788;49.930;8.660;2023-04-01T01:03:40;1.88;;;0.73;;
17340;SDS011;8788;49.930;8.660;2023-04-01T01:06:08;2.30;;;0.80;;
17340;SDS011;8788;49.930;8.660;2023-04-01T01:08:43;4.07;;;0.75;;
17340;SDS011;8788;49.930;8.660;2023-04-01T01:11:29;4.57;;;0.75;;
17340;SDS011;8788;49.930;8.660;2023-04-01T01:14:01;1.25;;;0.73;;
17340;SDS011;8788;49.930;8.660;2023-04-01T01:16:40;3.33;;;1.05;;
17340;SDS011;8788;49.930;8.660;2023-04-01T01:19:11;2.90;;;0.80;;
17340;SDS011;8788;49.930;8.660;2023-04-01T01:22:04;4.15;;;0.70;;
17340;SDS011;8788;49.930;8.660;2023-04-01T01:24:56;2.28;;;1.00;;
17340;SDS011;8788;49.930;8.660;2023-04-01T01:27:37;3.00;;;1.02;;
17340;SDS011;8788;49.930;8.660;2023-04-01T01:30:17;2.50;;;0.47;;
17340;SDS011;8788;49.930;8.660;2023-04-01T01:35:45;3.13;;;0.77;;
17340;SDS011;8788;49.930;8.660;2023-04-01T01:38:18;2.22;;;0.60;;
17340;SDS011;8788;49.930;8.660;2023-04-01T01:40:54;1.55;;;0.63;;
17340;SDS011;8788;49.930;8.660;2023-04-01T01:43:24;3.42;;;0.65;;
17340;SDS011;8788;49.930;8.660;2023-04-01T01:45:55;2.58;;;0.90;;
17340;SDS011;8788;49.930;8.660;2023-04-01T01:48:26;1.27;;;0.55;;
17340;SDS011;8788;49.930;8.660;2023-04-01T01:50:57;1.90;;;0.63;;
17340;SDS011;8788;49.930;8.660;2023-04-01T01:53:25;3.08;;;0.77;;
17340;SDS011;8788;49.930;8.660;2023-04-01T01:55:52;0.82;;;0.60;;
17340;SDS011;8788;49.930;8.660;2023-04-01T01:58:20;3.00;;;0.75;;
17340;SDS011;8788;49.930;8.660;2023-04-01T02:00:52;5.93;;;0.55;;
17340;SDS011;8788;49.930;8.660;2023-04-01T02:03:23;3.47;;;0.50;;
17340;SDS011;8788;49.930;8.660;2023-04-01T02:05:53;2.75;;;0.75;;
17340;SDS011;8788;49.930;8.660;2023-04-01T02:08:26;1.40;;;0.60;;
17340;SDS011;8788;49.930;8.660;2023-04-01T02:10:56;2.53;;;0.57;;
17340;SDS011;8788;49.930;8.660;2023-04-01T02:13:34;2.92;;;0.75;;
17340;SDS011;8788;49.930;8.660;2023-04-01T02:16:06;2.33;;;1.15;;
17340;SDS011;8788;49.930;8.660;2023-04-01T02:18:38;3.58;;;0.73;;
17340;SDS011;8788;49.930;8.660;2023-04-01T02:21:08;3.63;;;0.63;;
17340;SDS011;8788;49.930;8.660;2023-04-01T02:23:36;3.45;;;0.85;;
17340;SDS011;8788;49.930;8.660;2023-04-01T02:26:05;6.45;;;0.90;;
17340;SDS011;8788;49.930;8.660;2023-04-01T02:28:35;5.55;;;1.00;;
17340;SDS011;8788;49.930;8.660;2023-04-01T02:31:05;2.78;;;0.77;;
17340;SDS011;8788;49.930;8.660;2023-04-01T02:33:35;1.88;;;0.65;;
17340;SDS011;8788;49.930;8.660;2023-04-01T02:36:03;3.03;;;0.68;;
17340;SDS011;8788;49.930;8.660;2023-04-01T02:38:32;1.60;;;0.70;;
17340;SDS011;8788;49.930;8.660;2023-04-01T02:41:02;1.52;;;0.60;;
17340;SDS011;8788;49.930;8.660;2023-04-01T02:43:30;1.88;;;0.25;;
17340;SDS011;8788;49.930;8.660;2023-04-01T02:45:58;5.45;;;0.60;;
17340;SDS011;8788;49.930;8.660;2023-04-01T02:48:25;2.00;;;0.70;;
17340;SDS011;8788;49.930;8.660;2023-04-01T02:50:52;6.30;;;0.98;;
17340;SDS011;8788;49.930;8.660;2023-04-01T02:53:19;3.83;;;0.80;;
17340;SDS011;8788;49.930;8.660;2023-04-01T02:55:48;3.13;;;0.98;;
17340;SDS011;8788;49.930;8.660;2023-04-01T02:58:17;2.40;;;0.60;;
17340;SDS011;8788;49.930;8.660;2023-04-01T03:00:44;4.45;;;0.65;;
17340;SDS011;8788;49.930;8.660;2023-04-01T03:03:11;1.85;;;0.82;;
17340;SDS011;8788;49.930;8.660;2023-04-01T03:05:39;2.63;;;0.70;;
17340;SDS011;8788;49.930;8.660;2023-04-01T03:08:06;2.22;;;0.90;;
17340;SDS011;8788;49.930;8.660;2023-04-01T03:10:33;2.08;;;0.65;;
17340;SDS011;8788;49.930;8.660;2023-04-01T03:13:02;3.33;;;0.90;;
17340;SDS011;8788;49.930;8.660;2023-04-01T03:15:29;1.73;;;0.70;;
17340;SDS011;8788;49.930;8.660;2023-04-01T03:17:56;3.90;;;0.60;;
17340;SDS011;8788;49.930;8.660;2023-04-01T03:20:23;2.45;;;0.85;;
17340;SDS011;8788;49.930;8.660;2023-04-01T03:22:50;3.08;;;0.60;;
17340;SDS011;8788;49.930;8.660;2023-04-01T03:25:17;1.75;;;0.60;;
17340;SDS011;8788;49.930;8.660;2023-04-01T03:27:45;3.03;;;0.50;;
17340;SDS011;8788;49.930;8.660;2023-04-01T03:30:13;1.77;;;0.40;;
17340;SDS011;8788;49.930;8.660;2023-04-01T03:32:48;3.10;;;0.60;;
17340;SDS011;8788;49.930;8.660;2023-04-01T03:35:15;1.67;;;0.70;;
17340;SDS011;8788;49.930;8.660;2023-04-01T03:37:42;2.72;;;0.55;;
17340;SDS011;8788;49.930;8.660;2023-04-01T03:40:10;4.43;;;0.80;;
17340;SDS011;8788;49.930;8.660;2023-04-01T03:42:37;2.15;;;0.60;;
17340;SDS011;8788;49.930;8.660;2023-04-01T03:45:05;2.88;;;0.98;;
17340;SDS011;8788;49.930;8.660;2023-04-01T03:47:34;0.60;;;0.60;;
17340;SDS011;8788;49.930;8.660;2023-04-01T03:50:01;3.38;;;0.95;;
17340;SDS011;8788;49.930;8.660;2023-04-01T03:52:28;1.17;;;0.63;;
17340;SDS011;8788;49.930;8.660;2023-04-01T03:54:55;1.35;;;0.43;;
17340;SDS011;8788;49.930;8.660;2023-04-01T03:57:23;3.20;;;0.65;;
17340;SDS011;8788;49.930;8.660;2023-04-01T03:59:51;4.07;;;0.80;;
17340;SDS011;8788;49.930;8.660;2023-04-01T04:02:18;3.13;;;0.85;;
17340;SDS011;8788;49.930;8.660;2023-04-01T04:04:47;3.40;;;0.88;;
17340;SDS011;8788;49.930;8.660;2023-04-01T04:07:14;2.75;;;0.70;;
17340;SDS011;8788;49.930;8.660;2023-04-01T04:09:57;1.55;;;0.52;;
17340;SDS011;8788;49.930;8.660;2023-04-01T04:12:25;2.40;;;0.47;;
17340;SDS011;8788;49.930;8.660;2023-04-01T04:14:52;4.22;;;0.85;;
17340;SDS011;8788;49.930;8.660;2023-04-01T04:17:20;3.08;;;0.45;;
17340;SDS011;8788;49.930;8.660;2023-04-01T04:19:48;3.13;;;1.52;;
17340;SDS011;8788;49.930;8.660;2023-04-01T04:22:15;2.40;;;0.68;;
17340;SDS011;8788;49.930;8.660;2023-04-01T04:24:43;3.53;;;0.60;;
17340;SDS011;8788;49.930;8.660;2023-04-01T04:27:12;2.05;;;0.77;;
17340;SDS011;8788;49.930;8.660;2023-04-01T04:29:51;1.95;;;0.85;;
17340;SDS011;8788;49.930;8.660;2023-04-01T04:32:18;1.48;;;0.73;;
17340;SDS011;8788;49.930;8.660;2023-04-01T04:34:45;2.25;;;0.82;;
17340;SDS011;8788;49.930;8.660;2023-04-01T04:37:14;1.48;;;0.57;;
17340;SDS011;8788;49.930;8.660;2023-04-01T04:39:41;3.15;;;0.60;;
17340;SDS011;8788;49.930;8.660;2023-04-01T04:42:08;1.02;;;0.52;;
17340;SDS011;8788;49.930;8.660;2023-04-01T04:44:35;2.22;;;0.80;;
17340;SDS011;8788;49.930;8.660;2023-04-01T04:47:02;2.92;;;0.60;;
17340;SDS011;8788;49.930;8.660;2023-04-01T04:49:30;3.00;;;0.95;;
17340;SDS011;8788;49.930;8.660;2023-04-01T04:51:58;4.75;;;0.98;;
17340;SDS011;8788;49.930;8.660;2023-04-01T04:54:28;1.70;;;0.30;;
17340;SDS011;8788;49.930;8.660;2023-04-01T04:56:58;1.00;;;0.40;;
17340;SDS011;8788;49.930;8.660;2023-04-01T04:59:28;4.47;;;0.82;;
17340;SDS011;8788;49.930;8.660;2023-04-01T05:02:03;1.67;;;0.70;;
17340;SDS011;8788;49.930;8.660;2023-04-01T05:04:33;1.40;;;0.63;;
17340;SDS011;8788;49.930;8.660;2023-04-01T05:07:02;3.53;;;0.63;;
17340;SDS011;8788;49.930;8.660;2023-04-01T05:09:32;1.13;;;0.60;;
17340;SDS011;8788;49.930;8.660;2023-04-01T05:11:59;3.67;;;1.00;;
17340;SDS011;8788;49.930;8.660;2023-04-01T05:14:33;1.90;;;0.85;;
17340;SDS011;8788;49.930;8.660;2023-04-01T05:17:08;3.85;;;0.70;;
17340;SDS011;8788;49.930;8.660;2023-04-01T05:19:36;2.50;;;0.90;;
17340;SDS011;8788;49.930;8.660;2023-04-01T05:22:03;4.95;;;1.00;;
17340;SDS011;8788;49.930;8.660;2023-04-01T05:24:32;1.35;;;0.40;;
17340;SDS011;8788;49.930;8.660;2023-04-01T05:26:59;3.35;;;0.70;;
17340;SDS011;8788;49.930;8.660;2023-04-01T05:29:28;2.03;;;0.60;;
17340;SDS011;8788;49.930;8.660;2023-04-01T05:32:03;1.85;;;0.88;;
17340;SDS011;8788;49.930;8.660;2023-04-01T05:34:30;4.82;;;0.88;;
17340;SDS011;8788;49.930;8.660;2023-04-01T05:36:57;1.67;;;0.60;;
17340;SDS011;8788;49.930;8.660;2023-04-01T05:39:24;1.33;;;0.60;;
17340;SDS011;8788;49.930;8.660;2023-04-01T05:41:53;3.75;;;0.80;;
17340;SDS011;8788;49.930;8.660;2023-04-01T05:44:20;1.27;;;0.55;;
17340;SDS011;8788;49.930;8.660;2023-04-01T05:46:47;3.72;;;1.08;;
17340;SDS011;8788;49.930;8.660;2023-04-01T05:49:25;1.92;;;0.38;;
17340;SDS011;8788;49.930;8.660;2023-04-01T05:51:52;3.30;;;0.57;;
17340;SDS011;8788;49.930;8.660;2023-04-01T05:54:19;3.50;;;0.40;;
17340;SDS011;8788;49.930;8.660;2023-04-01T05:56:47;3.35;;;0.65;;
17340;SDS011;8788;49.930;8.660;2023-04-01T05:59:17;1.15;;;0.65;;
17340;SDS011;8788;49.930;8.660;2023-04-01T06:01:44;1.95;;;0.30;;
17340;SDS011;8788;49.930;8.660;2023-04-01T06:04:13;1.98;;;0.50;;
17340;SDS011;8788;49.930;8.660;2023-04-01T06:06:42;0.90;;;0.55;;
17340;SDS011;8788;49.930;8.660;2023-04-01T06:09:13;0.80;;;0.43;;
17340;SDS011;8788;49.930;8.660;2023-04-01T06:12:07;2.15;;;0.60;;
17340;SDS011;8788;49.930;8.660;2023-04-01T06:14:59;1.60;;;0.28;;
17340;SDS011;8788;49.930;8.660;2023-04-01T06:17:41;2.65;;;0.68;;
17340;SDS011;8788;49.930;8.660;2023-04-01T06:20:20;1.75;;;0.52;;
17340;SDS011;8788;49.930;8.660;2023-04-01T06:26:02;1.20;;;0.35;;
17340;SDS011;8788;49.930;8.660;2023-04-01T06:28:44;0.20;;;0.13;;
17340;SDS011;8788;49.930;8.660;2023-04-01T06:31:36;0.75;;;0.28;;
17340;SDS011;8788;49.930;8.660;2023-04-01T06:37:17;3.78;;;0.43;;
17340;SDS011;8788;49.930;8.660;2023-04-01T06:39:59;0.75;;;0.40;;
17340;SDS011;8788;49.930;8.660;2023-04-01T06:42:57;1.92;;;0.70;;
17340;SDS011;8788;49.930;8.660;2023-04-01T06:46:09;1.77;;;0.40;;
17340;SDS011;8788;49.930;8.660;2023-04-01T06:49:22;2.17;;;0.47;;
17340;SDS011;8788;49.930;8.660;2023-04-01T06:52:02;2.75;;;0.50;;
17340;SDS011;8788;49.930;8.660;2023-04-01T06:55:00;0.63;;;0.55;;
17340;SDS011;8788;49.930;8.660;2023-04-01T06:57:56;0.30;;;0.30;;
17340;SDS011;8788;49.930;8.660;2023-04-01T07:00:27;0.93;;;0.40;;
17340;SDS011;8788;49.930;8.660;2023-04-01T07:03:01;2.35;;;0.68;;
17340;SDS011;8788;49.930;8.660;2023-04-01T07:05:34;1.00;;;0.47;;
17340;SDS011;8788;49.930;8.660;2023-04-01T07:08:02;3.25;;;0.60;;
17340;SDS011;8788;49.930;8.660;2023-04-01T07:10:35;0.50;;;0.40;;
17340;SDS011;8788;49.930;8.660;2023-04-01T07:13:29;0.98;;;0.28;;
17340;SDS011;8788;49.930;8.660;2023-04-01T07:16:11;1.98;;;0.70;;
17340;SDS011;8788;49.930;8.660;2023-04-01T07:18:43;2.25;;;0.30;;
17340;SDS011;8788;49.930;8.660;2023-04-01T07:21:19;2.00;;;0.68;;
17340;SDS011;8788;49.930;8.660;2023-04-01T07:23:54;1.15;;;0.40;;
17340;SDS011;8788;49.930;8.660;2023-04-01T07:26:37;1.88;;;0.60;;
17340;SDS011;8788;49.930;8.660;2023-04-01T07:29:05;1.73;;;0.38;;
17340;SDS011;8788;49.930;8.660;2023-04-01T07:31:45;1.45;;;0.50;;
17340;SDS011;8788;49.930;8.660;2023-04-01T07:34:25;2.90;;;0.57;;
17340;SDS011;8788;49.930;8.660;2023-04-01T07:36:57;3.50;;;0.70;;
17340;SDS011;8788;49.930;8.660;2023-04-01T07:39:30;1.02;;;0.50;;
17340;SDS011;8788;49.930;8.660;2023-04-01T07:42:16;4.38;;;0.55;;
17340;SDS011;8788;49.930;8.660;2023-04-01T07:44:54;3.05;;;0.90;;
17340;SDS011;8788;49.930;8.660;2023-04-01T07:47:40;0.80;;;0.45;;
17340;SDS011;8788;49.930;8.660;2023-04-01T07:50:20;1.77;;;0.45;;
17340;SDS011;8788;49.930;8.660;2023-04-01T07:52:55;2.17;;;0.30;;
17340;SDS011;8788;49.930;8.660;2023-04-01T07:55:36;1.67;;;0.30;;
17340;SDS011;8788;49.930;8.660;2023-04-01T07:58:10;0.30;;;0.30;;
17340;SDS011;8788;49.930;8.660;2023-04-01T08:00:46;1.13;;;0.30;;
17340;SDS011;8788;49.930;8.660;2023-04-01T08:03:33;1.73;;;0.40;;
17340;SDS011;8788;49.930;8.660;2023-04-01T08:06:11;3.20;;;0.73;;
17340;SDS011;8788;49.930;8.660;2023-04-01T08:08:49;1.45;;;0.38;;
17340;SDS011;8788;49.930;8.660;2023-04-01T08:11:39;2.58;;;0.60;;
17340;SDS011;8788;49.930;8.660;2023-04-01T08:14:42;0.70;;;0.52;;
17340;SDS011;8788;49.930;8.660;2023-04-01T08:17:39;1.27;;;0.25;;
17340;SDS011;8788;49.930;8.660;2023-04-01T08:20:23;1.65;;;0.50;;
17340;SDS011;8788;49.930;8.660;2023-04-01T08:22:57;0.30;;;0.20;;
17340;SDS011;8788;49.930;8.660;2023-04-01T08:25:34;0.25;;;0.25;;
17340;SDS011;8788;49.930;8.660;2023-04-01T08:28:09;1.27;;;0.40;;
17340;SDS011;8788;49.930;8.660;2023-04-01T08:30:40;1.20;;;0.30;;
17340;SDS011;8788;49.930;8.660;2023-04-01T08:33:13;0.52;;;0.20;;
17340;SDS011;8788;49.930;8.660;2023-04-01T08:35:46;1.17;;;0.40;;
17340;SDS011;8788;49.930;8.660;2023-04-01T08:38:17;1.00;;;0.50;;
17340;SDS011;8788;49.930;8.660;2023-04-01T08:41:01;0.80;;;0.15;;
17340;SDS011;8788;49.930;8.660;2023-04-01T08:44:19;0.45;;;0.20;;
17340;SDS011;8788;49.930;8.660;2023-04-01T08:47:29;0.40;;;0.40;;
17340;SDS011;8788;49.930;8.660;2023-04-01T08:50:18;0.80;;;0.50;;
17340;SDS011;8788;49.930;8.660;2023-04-01T08:53:06;1.42;;;0.30;;
17340;SDS011;8788;49.930;8.660;2023-04-01T08:55:55;1.92;;;0.43;;
17340;SDS011;8788;49.930;8.660;2023-04-01T09:01:39;1.10;;;0.30;;
17340;SDS011;8788;49.930;8.660;2023-04-01T09:04:39;1.30;;;0.50;;
17340;SDS011;8788;49.930;8.660;2023-04-01T09:07:23;1.02;;;0.40;;
17340;SDS011;8788;49.930;8.660;2023-04-01T09:16:05;1.23;;;0.38;;
17340;SDS011;8788;49.930;8.660;2023-04-01T09:18:49;3.17;;;0.40;;
17340;SDS011;8788;49.930;8.660;2023-04-01T09:24:53;0.65;;;0.40;;
17340;SDS011;8788;49.930;8.660;2023-04-01T09:27:40;0.60;;;0.30;;
17340;SDS011;8788;49.930;8.660;2023-04-01T09:36:43;0.25;;;0.10;;
17340;SDS011;8788;49.930;8.660;2023-04-01T09:45:23;1.55;;;0.25;;
17340;SDS011;8788;49.930;8.660;2023-04-01T09:48:11;0.30;;;0.30;;
17340;SDS011;8788;49.930;8.660;2023-04-01T09:50:47;0.35;;;0.20;;
17340;SDS011;8788;49.930;8.660;2023-04-01T09:53:27;1.75;;;0.43;;
17340;SDS011;8788;49.930;8.660;2023-04-01T09:56:42;0.20;;;0.20;;
17340;SDS011;8788;49.930;8.660;2023-04-01T09:59:52;0.47;;;0.20;;
17340;SDS011;8788;49.930;8.660;2023-04-01T10:06:28;0.35;;;0.25;;
17340;SDS011;8788;49.930;8.660;2023-04-01T10:09:31;0.30;;;0.20;;
17340;SDS011;8788;49.930;8.660;2023-04-01T10:12:35;0.20;;;0.20;;
17340;SDS011;8788;49.930;8.660;2023-04-01T10:18:53;0.20;;;0.17;;
17340;SDS011;8788;49.930;8.660;2023-04-01T10:27:33;0.80;;;0.20;;
17340;SDS011;8788;49.930;8.660;2023-04-01T10:33:50;1.85;;;0.28;;
17340;SDS011;8788;49.930;8.660;2023-04-01T10:36:47;0.35;;;0.28;;
17340;SDS011;8788;49.930;8.660;2023-04-01T10:39:37;0.45;;;0.32;;
17340;SDS011;8788;49.930;8.660;2023-04-01T10:42:39;0.30;;;0.30;;
17340;SDS011;8788;49.930;8.660;2023-04-01T10:49:06;0.25;;;0.22;;
17340;SDS011;8788;49.930;8.660;2023-04-01T10:51:59;0.20;;;0.20;;
17340;SDS011;8788;49.930;8.660;2023-04-01T10:55:37;0.40;;;0.35;;
17340;SDS011;8788;49.930;8.660;2023-04-01T11:02:11;1.23;;;0.20;;
17340;SDS011;8788;49.930;8.660;2023-04-01T11:08:39;0.43;;;0.43;;
17340;SDS011;8788;49.930;8.660;2023-04-01T11:18:06;0.32;;;0.22;;
17340;SDS011;8788;49.930;8.660;2023-04-01T11:23:58;0.30;;;0.30;;
17340;SDS011;8788;49.930;8.660;2023-04-01T11:26:47;0.30;;;0.30;;
17340;SDS011;8788;49.930;8.660;2023-04-01T11:32:34;1.27;;;0.30;;
17340;SDS011;8788;49.930;8.660;2023-04-01T11:38:44;0.30;;;0.30;;
17340;SDS011;8788;49.930;8.660;2023-04-01T11:41:43;0.28;;;0.28;;
17340;SDS011;8788;49.930;8.660;2023-04-01T11:44:38;0.30;;;0.30;;
17340;SDS011;8788;49.930;8.660;2023-04-01T11:47:18;0.28;;;0.28;;
17340;SDS011;8788;49.930;8.660;2023-04-01T11:49:57;1.65;;;0.30;;
17340;SDS011;8788;49.930;8.660;2023-04-01T11:52:56;0.30;;;0.30;;
17340;SDS011;8788;49.930;8.660;2023-04-01T11:55:39;0.25;;;0.25;;
17340;SDS011;8788;49.930;8.660;2023-04-01T11:58:25;1.05;;;0.60;;
17340;SDS011;8788;49.930;8.660;2023-04-01T12:01:17;0.50;;;0.38;;
17340;SDS011;8788;49.930;8.660;2023-04-01T12:03:55;0.13;;;0.13;;
17340;SDS011;8788;49.930;8.660;2023-04-01T12:06:51;0.95;;;0.30;;
17340;SDS011;8788;49.930;8.660;2023-04-01T12:09:30;0.30;;;0.30;;
17340;SDS011;8788;49.930;8.660;2023-04-01T12:12:11;0.45;;;0.32;;
17340;SDS011;8788;49.930;8.660;2023-04-01T12:14:47;0.35;;;0.35;;
17340;SDS011;8788;49.930;8.660;2023-04-01T12:17:27;0.47;;;0.40;;
17340;SDS011;8788;49.930;8.660;2023-04-01T12:20:01;2.10;;;0.30;;
17340;SDS011;8788;49.930;8.660;2023-04-01T12:22:46;0.30;;;0.30;;
17340;SDS011;8788;49.930;8.660;2023-04-01T12:25:24;0.20;;;0.20;;
17340;SDS011;8788;49.930;8.660;2023-04-01T12:28:05;0.77;;;0.30;;
17340;SDS011;8788;49.930;8.660;2023-04-01T12:30:46;0.30;;;0.30;;
17340;SDS011;8788;49.930;8.660;2023-04-01T12:33:40;0.47;;;0.40;;
17340;SDS011;8788;49.930;8.660;2023-04-01T12:36:25;2.63;;;0.40;;
17340;SDS011;8788;49.930;8.660;2023-04-01T12:39:12;0.52;;;0.40;;
17340;SDS011;8788;49.930;8.660;2023-04-01T12:42:05;1.25;;;0.40;;
17340;SDS011;8788;49.930;8.660;2023-04-01T12:44:45;0.40;;;0.40;;
17340;SDS011;8788;49.930;8.660;2023-04-01T12:47:27;0.20;;;0.20;;
17340;SDS011;8788;49.930;8.660;2023-04-01T12:50:28;2.50;;;0.60;;
17340;SDS011;8788;49.930;8.660;2023-04-01T12:53:21;0.40;;;0.40;;
17340;SDS011;8788;49.930;8.660;2023-04-01T12:56:05;0.20;;;0.20;;
17340;SDS011;8788;49.930;8.660;2023-04-01T12:58:51;1.75;;;0.50;;
17340;SDS011;8788;49.930;8.660;2023-04-01T13:01:49;0.25;;;0.25;;
17340;SDS011;8788;49.930;8.660;2023-04-01T13:04:48;0.77;;;0.45;;
17340;SDS011;8788;49.930;8.660;2023-04-01T13:07:42;0.30;;;0.30;;
17340;SDS011;8788;49.930;8.660;2023-04-01T13:10:21;0.20;;;0.20;;
17340;SDS011;8788;49.930;8.660;2023-04-01T13:13:05;0.20;;;0.20;;
17340;SDS011;8788;49.930;8.660;2023-04-01T13:15:57;0.35;;;0.17;;
17340;SDS011;8788;49.930;8.660;2023-04-01T13:18:29;0.47;;;0.43;;
17340;SDS011;8788;49.930;8.660;2023-04-01T13:21:04;0.38;;;0.20;;
17340;SDS011;8788;49.930;8.660;2023-04-01T13:23:40;0.20;;;0.20;;
17340;SDS011;8788;49.930;8.660;2023-04-01T13:26:18;0.20;;;0.20;;
17340;SDS011;8788;49.930;8.660;2023-04-01T13:28:52;1.17;;;0.20;;
17340;SDS011;8788;49.930;8.660;2023-04-01T13:31:32;0.20;;;0.20;;
17340;SDS011;8788;49.930;8.660;2023-04-01T13:34:08;1.05;;;0.32;;
17340;SDS011;8788;49.930;8.660;2023-04-01T13:36:46;0.63;;;0.30;;
17340;SDS011;8788;49.930;8.660;2023-04-01T13:39:32;0.57;;;0.25;;
17340;SDS011;8788;49.930;8.660;2023-04-01T13:42:13;0.15;;;0.15;;
17340;SDS011;8788;49.930;8.660;2023-04-01T13:44:46;2.25;;;0.43;;
17340;SDS011;8788;49.930;8.660;2023-04-01T13:47:26;1.23;;;0.20;;
17340;SDS011;8788;49.930;8.660;2023-04-01T13:50:26;0.52;;;0.50;;
17340;SDS011;8788;49.930;8.660;2023-04-01T13:53:16;0.32;;;0.32;;
17340;SDS011;8788;49.930;8.660;2023-04-01T13:59:08;0.30;;;0.30;;
17340;SDS011;8788;49.930;8.660;2023-04-01T14:01:57;0.30;;;0.30;;
17340;SDS011;8788;49.930;8.660;2023-04-01T14:04:36;0.45;;;0.30;;
17340;SDS011;8788;49.930;8.660;2023-04-01T14:07:31;3.05;;;0.30;;
17340;SDS011;8788;49.930;8.660;2023-04-01T14:10:13;0.20;;;0.20;;
17340;SDS011;8788;49.930;8.660;2023-04-01T14:12:47;0.20;;;0.20;;
17340;SDS011;8788;49.930;8.660;2023-04-01T14:15:25;0.30;;;0.25;;
17340;SDS011;8788;49.930;8.660;2023-04-01T14:18:17;0.17;;;0.17;;
17340;SDS011;8788;49.930;8.660;2023-04-01T14:21:13;0.40;;;0.20;;
17340;SDS011;8788;49.930;8.660;2023-04-01T14:23:50;0.30;;;0.30;;
17340;SDS011;8788;49.930;8.660;2023-04-01T14:26:33;0.30;;;0.25;;
17340;SDS011;8788;49.930;8.660;2023-04-01T14:29:14;0.75;;;0.30;;
17340;SDS011;8788;49.930;8.660;2023-04-01T14:31:57;0.10;;;0.10;;
17340;SDS011;8788;49.930;8.660;2023-04-01T14:34:32;0.52;;;0.20;;
17340;SDS011;8788;49.930;8.660;2023-04-01T14:37:23;0.20;;;0.20;;
17340;SDS011;8788;49.930;8.660;2023-04-01T14:40:20;0.20;;;0.20;;
17340;SDS011;8788;49.930;8.660;2023-04-01T14:42:56;0.15;;;0.15;;
17340;SDS011;8788;49.930;8.660;2023-04-01T14:48:28;0.13;;;0.13;;
17340;SDS011;8788;49.930;8.660;2023-04-01T14:51:02;0.30;;;0.30;;
17340;SDS011;8788;49.930;8.660;2023-04-01T14:53:36;0.20;;;0.20;;
17340;SDS011;8788;49.930;8.660;2023-04-01T14:56:10;1.10;;;0.28;;
17340;SDS011;8788;49.930;8.660;2023-04-01T14:58:47;0.22;;;0.20;;
17340;SDS011;8788;49.930;8.660;2023-04-01T15:01:25;0.25;;;0.20;;
17340;SDS011;8788;49.930;8.660;2023-04-01T15:04:03;0.15;;;0.15;;
17340;SDS011;8788;49.930;8.660;2023-04-01T15:06:43;0.10;;;0.10;;
17340;SDS011;8788;49.930;8.660;2023-04-01T15:09:26;0.17;;;0.17;;
17340;SDS011;8788;49.930;8.660;2023-04-01T15:12:04;0.20;;;0.20;;
17340;SDS011;8788;49.930;8.660;2023-04-01T15:14:49;0.57;;;0.13;;
17340;SDS011;8788;49.930;8.660;2023-04-01T15:17:48;0.10;;;0.10;;
17340;SDS011;8788;49.930;8.660;2023-04-01T15:23:40;0.35;;;0.30;;
17340;SDS011;8788;49.930;8.660;2023-04-01T15:29:26;0.30;;;0.30;;
17340;SDS011;8788;49.930;8.660;2023-04-01T15:32:07;0.30;;;0.30;;
17340;SDS011;8788;49.930;8.660;2023-04-01T15:34:45;0.20;;;0.20;;
17340;SDS011;8788;49.930;8.660;2023-04-01T15:37:17;0.20;;;0.20;;
17340;SDS011;8788;49.930;8.660;2023-04-01T15:39:54;1.38;;;0.28;;
17340;SDS011;8788;49.930;8.660;2023-04-01T15:42:30;0.28;;;0.28;;
17340;SDS011;8788;49.930;8.660;2023-04-01T15:45:08;0.45;;;0.20;;
17340;SDS011;8788;49.930;8.660;2023-04-01T15:47:44;0.28;;;0.28;;
17340;SDS011;8788;49.930;8.660;2023-04-01T15:50:34;0.88;;;0.40;;
17340;SDS011;8788;49.930;8.660;2023-04-01T15:53:19;1.13;;;0.40;;
17340;SDS011;8788;49.930;8.660;2023-04-01T15:56:16;0.10;;;0.10;;
17340;SDS011;8788;49.930;8.660;2023-04-01T15:58:57;0.45;;;0.20;;
17340;SDS011;8788;49.930;8.660;2023-04-01T16:01:34;0.98;;;0.20;;
17340;SDS011;8788;49.930;8.660;2023-04-01T16:04:15;0.85;;;0.30;;
17340;SDS011;8788;49.930;8.660;2023-04-01T16:06:58;1.95;;;0.50;;
17340;SDS011;8788;49.930;8.660;2023-04-01T16:09:42;0.20;;;0.20;;
17340;SDS011;8788;49.930;8.660;2023-04-01T16:12:19;0.50;;;0.50;;
17340;SDS011;8788;49.930;8.660;2023-04-01T16:15:01;0.30;;;0.30;;
17340;SDS011;8788;49.930;8.660;2023-04-01T16:17:41;1.08;;;0.40;;
17340;SDS011;8788;49.930;8.660;2023-04-01T16:20:21;1.45;;;0.30;;
17340;SDS011;8788;49.930;8.660;2023-04-01T16:22:53;0.57;;;0.45;;
17340;SDS011;8788;49.930;8.660;2023-04-01T16:25:29;0.60;;;0.60;;
17340;SDS011;8788;49.930;8.660;2023-04-01T16:28:04;0.38;;;0.38;;
17340;SDS011;8788;49.930;8.660;2023-04-01T16:30:46;0.50;;;0.50;;
17340;SDS011;8788;49.930;8.660;2023-04-01T16:33:20;0.55;;;0.52;;
17340;SDS011;8788;49.930;8.660;2023-04-01T16:35:53;3.92;;;0.50;;
17340;SDS011;8788;49.930;8.660;2023-04-01T16:38:25;0.28;;;0.28;;
17340;SDS011;8788;49.930;8.660;2023-04-01T16:41:03;0.30;;;0.20;;
17340;SDS011;8788;49.930;8.660;2023-04-01T16:43:38;0.13;;;0.10;;
17340;SDS011;8788;49.930;8.660;2023-04-01T16:46:29;0.30;;;0.20;;
17340;SDS011;8788;49.930;8.660;2023-04-01T16:49:04;0.30;;;0.30;;
17340;SDS011;8788;49.930;8.660;2023-04-01T16:51:52;0.20;;;0.20;;
17340;SDS011;8788;49.930;8.660;2023-04-01T16:54:26;0.25;;;0.20;;
17340;SDS011;8788;49.930;8.660;2023-04-01T16:57:01;0.20;;;0.20;;
17340;SDS011;8788;49.930;8.660;2023-04-01T16:59:44;1.02;;;0.20;;
17340;SDS011;8788;49.930;8.660;2023-04-01T17:02:16;0.63;;;0.25;;
17340;SDS011;8788;49.930;8.660;2023-04-01T17:04:46;0.40;;;0.32;;
17340;SDS011;8788;49.930;8.660;2023-04-01T17:07:18;0.52;;;0.20;;
17340;SDS011;8788;49.930;8.660;2023-04-01T17:09:53;0.10;;;0.10;;
17340;SDS011;8788;49.930;8.660;2023-04-01T17:12:34;0.10;;;0.10;;
17340;SDS011;8788;49.930;8.660;2023-04-01T17:15:16;0.50;;;0.20;;
17340;SDS011;8788;49.930;8.660;2023-04-01T17:17:51;0.22;;;0.20;;
17340;SDS011;8788;49.930;8.660;2023-04-01T17:20:34;0.17;;;0.17;;
17340;SDS011;8788;49.930;8.660;2023-04-01T17:23:11;0.10;;;0.10;;
17340;SDS011;8788;49.930;8.660;2023-04-01T17:25:47;0.68;;;0.50;;
17340;SDS011;8788;49.930;8.660;2023-04-01T17:28:25;0.68;;;0.40;;
17340;SDS011;8788;49.930;8.660;2023-04-01T17:31:02;1.75;;;0.60;;
17340;SDS011;8788;49.930;8.660;2023-04-01T17:33:42;0.50;;;0.50;;
17340;SDS011;8788;49.930;8.660;2023-04-01T17:39:27;0.40;;;0.30;;